Time;durP1;ratioP1;P1;durP2;ratioP2;P2;SDS_P1;SDS_P2;PMS_P1;PMS_P2;Temp;Humidity;BMP_temperature;BMP_pressure;BME280_temperature;BME280_humidity;BME280_pressure;Samples;Min_cycle;Max_cycle;Signal;HPM_P1;HPM_P2
2023/07/21 00:01:04;;;;;;;1.00;1.00;;;;;;;21.90;78.77;96606.16;5043195;28;20088;-65
2023/07/21 00:03:32;;;;;;;1.00;1.00;;;;;;;21.89;78.10;96596.13;5060641;28;20099;-65
2023/07/21 00:06:00;;;;;;;1.10;1.10;;;;;;;22.13;77.85;96628.31;5061930;28;20056;-65
2023/07/21 00:08:29;;;;;;;1.00;1.00;;;;;;;21.46;77.58;96528.31;5063200;28;20048;-65
2023/07/21 00:10:59;;;;;;;1.10;1.10;;;;;;;21.94;77.52;96609.63;5062969;28;20059;-65
2023/07/21 00:13:27;;;;;;;1.00;1.00;;;;;;;21.47;77.73;96546.78;5061708;28;20431;-64
2023/07/21 00:15:55;;;;;;;1.05;1.05;;;;;;;21.58;78.34;96591.53;5064252;28;20515;-65
2023/07/21 00:18:23;;;;;;;0.95;0.95;;;;;;;21.57;79.21;96618.94;5066223;28;20534;-64
2023/07/21 00:20:50;;;;;;;1.00;1.00;;;;;;;20.41;78.56;96424.72;5067593;28;20048;-64
2023/07/21 00:23:20;;;;;;;1.00;1.00;;;;;;;21.49;78.59;96606.31;5067306;28;20057;-65
2023/07/21 00:25:47;;;;;;;1.00;1.00;;;;;;;21.34;78.04;96588.28;5065407;28;20052;-66
2023/07/21 00:28:14;;;;;;;0.90;0.90;;;;;;;21.42;78.48;96614.22;5067160;28;20063;-64
2023/07/21 00:30:41;;;;;;;1.00;1.00;;;;;;;20.96;79.56;96562.13;5065650;28;20048;-66
2023/07/21 00:33:08;;;;;;;1.10;1.10;;;;;;;21.17;78.29;96575.56;5065185;28;20132;-64
2023/07/21 00:35:34;;;;;;;1.00;1.00;;;;;;;21.07;79.00;96602.03;5065383;28;20053;-65
2023/07/21 00:38:01;;;;;;;0.90;0.90;;;;;;;20.93;81.51;96614.50;5066549;28;20052;-64
2023/07/21 00:40:30;;;;;;;0.80;0.80;;;;;;;21.17;80.50;96623.44;5066756;28;20056;-65
2023/07/21 00:42:59;;;;;;;1.00;1.00;;;;;;;21.21;79.96;96635.41;5066864;28;20052;-66
2023/07/21 00:45:28;;;;;;;0.98;0.98;;;;;;;21.25;79.26;96624.81;5067015;28;20338;-65
2023/07/21 00:47:56;;;;;;;0.90;0.90;;;;;;;20.99;78.92;96595.06;5067073;28;20287;-66
2023/07/21 00:50:24;;;;;;;0.90;0.90;;;;;;;20.91;78.89;96573.97;5064904;28;20160;-64
2023/07/21 00:52:51;;;;;;;0.93;0.93;;;;;;;21.28;78.23;96632.34;5066595;28;20531;-65
2023/07/21 00:55:18;;;;;;;0.90;0.90;;;;;;;20.80;79.00;96581.94;5066888;28;20132;-66
2023/07/21 00:57:45;;;;;;;0.90;0.90;;;;;;;20.96;80.20;96612.84;5066542;28;20044;-65
2023/07/21 01:00:13;;;;;;;1.00;1.00;;;;;;;21.05;80.09;96632.69;5066245;28;20671;-66
2023/07/21 01:02:40;;;;;;;0.93;0.93;;;;;;;21.02;80.31;96622.31;5057008;28;20049;-65
2023/07/21 01:05:08;;;;;;;0.90;0.90;;;;;;;20.74;80.39;96578.09;5046236;28;20045;-64
2023/07/21 01:07:38;;;;;;;0.90;0.90;;;;;;;20.96;80.52;96627.72;5046844;28;20044;-65
2023/07/21 01:10:07;;;;;;;0.90;0.90;;;;;;;20.61;82.30;96613.88;5046188;28;20056;-66
2023/07/21 01:12:35;;;;;;;0.90;0.90;;;;;;;20.50;82.39;96585.25;5045457;28;20106;-65
2023/07/21 01:15:02;;;;;;;1.00;1.00;;;;;;;20.78;81.79;96606.94;5044915;28;20119;-64
2023/07/21 01:17:29;;;;;;;1.00;1.00;;;;;;;20.67;80.17;96578.31;5045103;28;20060;-65
2023/07/21 01:19:58;;;;;;;0.93;0.93;;;;;;;20.71;78.87;96570.53;5046164;28;20135;-64
2023/07/21 01:22:31;;;;;;;0.90;0.90;;;;;;;20.14;79.27;96511.56;5046406;28;20606;-65
2023/07/21 01:25:11;;;;;;;1.00;1.00;;;;;;;20.74;79.36;96617.50;5046498;28;20542;-65
2023/07/21 01:27:43;;;;;;;0.90;0.90;;;;;;;19.91;79.70;96500.53;5043886;28;20053;-64
2023/07/21 01:30:13;;;;;;;0.90;0.90;;;;;;;20.63;80.01;96614.22;5045819;28;20059;-65
2023/07/21 01:32:41;;;;;;;0.90;0.90;;;;;;;20.52;80.87;96622.16;5045023;28;20076;-65
2023/07/21 01:35:09;;;;;;;0.90;0.90;;;;;;;19.69;81.12;96502.38;5044517;28;20052;-64
2023/07/21 01:37:38;;;;;;;1.00;1.00;;;;;;;20.47;81.60;96642.44;5044976;28;20061;-65
2023/07/21 01:40:11;;;;;;;1.00;1.00;;;;;;;19.99;81.60;96560.97;5044369;28;20057;-64
2023/07/21 01:42:39;;;;;;;0.93;0.93;;;;;;;20.11;83.24;96596.78;5045922;28;20963;-65
2023/07/21 01:45:07;;;;;;;0.90;0.90;;;;;;;20.30;83.62;96618.38;5045452;28;20118;-64
2023/07/21 01:47:35;;;;;;;0.90;0.90;;;;;;;20.27;82.33;96599.56;5045966;28;20049;-65
2023/07/21 01:50:06;;;;;;;1.00;1.00;;;;;;;20.42;81.23;96674.69;5045271;28;20425;-65
2023/07/21 01:52:35;;;;;;;0.98;0.98;;;;;;;20.26;81.66;96609.25;5045958;28;20052;-64
2023/07/21 01:55:17;;;;;;;1.00;1.00;;;;;;;19.99;80.76;96556.16;5043992;28;20052;-66
2023/07/21 01:57:54;;;;;;;0.90;0.90;;;;;;;20.05;80.89;96573.25;5045367;28;20460;-65
2023/07/21 02:00:22;;;;;;;0.80;0.80;;;;;;;20.24;80.89;96628.59;5045377;28;20088;-64
2023/07/21 02:02:51;;;;;;;0.90;0.90;;;;;;;20.14;81.12;96618.44;5055431;28;20059;-64
2023/07/21 02:05:19;;;;;;;0.90;0.90;;;;;;;20.51;80.13;96665.63;5065264;28;20044;-66
2023/07/21 02:07:46;;;;;;;0.90;0.90;;;;;;;20.24;79.67;96611.72;5064000;28;20052;-65
2023/07/21 02:10:13;;;;;;;0.80;0.80;;;;;;;18.88;79.48;96401.38;5063422;28;20521;-65
2023/07/21 02:12:40;;;;;;;0.88;0.88;;;;;;;20.37;79.25;96647.13;5058603;28;20044;-65
2023/07/21 02:15:07;;;;;;;0.90;0.90;;;;;;;20.34;79.25;96666.91;5043595;28;20052;-65
2023/07/21 02:17:34;;;;;;;1.00;1.00;;;;;;;20.32;79.31;96652.50;5045560;28;20059;-64
2023/07/21 02:20:07;;;;;;;0.90;0.90;;;;;;;20.24;79.10;96628.59;5045107;28;20075;-64
2023/07/21 02:22:39;;;;;;;0.80;0.80;;;;;;;20.22;78.78;96647.94;5045693;28;20128;-65
2023/07/21 02:25:09;;;;;;;0.90;0.90;;;;;;;20.19;79.26;96679.75;5044472;28;20547;-65
2023/07/21 02:27:35;;;;;;;0.80;0.80;;;;;;;20.07;79.13;96674.84;5045355;28;20057;-65
2023/07/21 02:30:03;;;;;;;1.00;1.00;;;;;;;19.85;79.67;96634.44;5044751;28;20052;-65
2023/07/21 02:32:30;;;;;;;0.82;0.82;;;;;;;19.72;80.42;96625.94;5045307;28;20053;-65
2023/07/21 02:34:58;;;;;;;0.80;0.80;;;;;;;19.96;79.89;96657.44;5044696;28;20056;-65
2023/07/21 02:37:25;;;;;;;0.80;0.80;;;;;;;20.08;79.48;96668.78;5045448;28;20048;-65
2023/07/21 02:39:52;;;;;;;0.90;0.90;;;;;;;19.91;79.69;96641.91;5044549;28;20065;-66
2023/07/21 02:42:19;;;;;;;0.80;0.80;;;;;;;19.92;79.17;96639.88;5045194;28;20059;-65
2023/07/21 02:44:45;;;;;;;0.90;0.90;;;;;;;20.05;79.77;96678.09;5044643;28;20324;-65
2023/07/21 02:47:15;;;;;;;0.90;0.90;;;;;;;19.70;79.80;96628.38;5044999;28;20174;-65
2023/07/21 02:49:41;;;;;;;0.80;0.80;;;;;;;19.67;79.60;96645.34;5044088;28;20083;-65
2023/07/21 02:52:08;;;;;;;0.90;0.90;;;;;;;19.68;80.11;96625.22;5059751;28;20049;-65
2023/07/21 02:54:35;;;;;;;0.80;0.80;;;;;;;19.61;79.72;96619.00;5043986;28;20049;-65
2023/07/21 02:57:02;;;;;;;0.80;0.80;;;;;;;19.57;79.95;96623.94;5044499;28;20114;-65
2023/07/21 02:59:29;;;;;;;0.85;0.85;;;;;;;19.62;79.57;96631.84;5044764;28;20053;-65
2023/07/21 03:01:56;;;;;;;0.90;0.90;;;;;;;19.84;80.05;96672.22;5043933;28;20064;-64
2023/07/21 03:04:25;;;;;;;0.85;0.85;;;;;;;19.36;81.33;96626.00;5044647;28;20426;-64
2023/07/21 03:06:52;;;;;;;0.90;0.90;;;;;;;19.69;80.69;96666.16;5027285;28;20056;-65
2023/07/21 03:09:19;;;;;;;0.85;0.85;;;;;;;19.26;80.41;96604.56;5024404;28;20485;-65
2023/07/21 03:11:46;;;;;;;0.88;0.88;;;;;;;19.65;80.73;96678.72;5038824;28;20505;-65
2023/07/21 03:14:13;;;;;;;0.90;0.90;;;;;;;19.53;81.04;96672.56;5023785;28;20059;-64
2023/07/21 03:16:40;;;;;;;0.80;0.80;;;;;;;19.37;80.75;96643.66;5023386;28;20127;-64
2023/07/21 03:19:08;;;;;;;0.90;0.90;;;;;;;19.43;82.08;96673.59;5024046;28;20053;-65
2023/07/21 03:21:34;;;;;;;0.90;0.90;;;;;;;19.44;83.08;96686.41;5039336;28;20061;-64
2023/07/21 03:24:01;;;;;;;0.80;0.80;;;;;;;17.85;83.80;96457.44;5024245;28;20049;-65
2023/07/21 03:26:28;;;;;;;0.88;0.88;;;;;;;19.22;84.54;96671.25;5039309;28;20057;-64
2023/07/21 03:28:55;;;;;;;0.80;0.80;;;;;;;19.07;83.81;96616.66;5024638;28;20049;-65
2023/07/21 03:31:22;;;;;;;0.80;0.80;;;;;;;19.07;83.36;96602.63;5024115;28;20065;-64
2023/07/21 03:33:49;;;;;;;0.82;0.82;;;;;;;19.45;81.52;96639.47;5024526;28;20057;-66
2023/07/21 03:36:16;;;;;;;0.80;0.80;;;;;;;19.72;81.04;96675.72;5023965;28;20071;-65
2023/07/21 03:38:43;;;;;;;0.90;0.90;;;;;;;19.75;79.64;96669.22;5024110;28;20115;-65
2023/07/21 03:41:10;;;;;;;0.90;0.90;;;;;;;19.99;79.86;96698.75;5023705;28;20050;-65
2023/07/21 03:43:37;;;;;;;0.90;0.90;;;;;;;19.95;79.31;96678.38;5023805;28;20055;-65
2023/07/21 03:46:06;;;;;;;0.75;0.75;;;;;;;20.12;79.20;96694.00;5023345;28;20432;-66
2023/07/21 03:48:34;;;;;;;0.90;0.90;;;;;;;20.05;78.74;96664.03;5038774;28;20054;-66
2023/07/21 03:51:05;;;;;;;0.80;0.80;;;;;;;20.20;78.60;96672.91;5022414;28;20088;-66
2023/07/21 03:53:32;;;;;;;0.80;0.80;;;;;;;20.39;78.27;96697.31;5023725;28;20060;-65
2023/07/21 03:56:04;;;;;;;0.82;0.82;;;;;;;20.27;78.21;96672.72;5023597;28;20508;-65
2023/07/21 03:58:30;;;;;;;0.80;0.80;;;;;;;20.61;77.43;96690.66;5022462;28;20523;-65
2023/07/21 04:00:59;;;;;;;0.80;0.80;;;;;;;20.69;76.67;96688.44;5023554;28;20056;-65
2023/07/21 04:03:26;;;;;;;0.98;0.98;;;;;;;20.59;76.27;96664.19;5035474;28;20535;-65
2023/07/21 04:05:54;;;;;;;0.90;0.90;;;;;;;21.04;76.03;96721.22;5043548;28;20142;-65
2023/07/21 04:08:20;;;;;;;0.90;0.90;;;;;;;20.73;75.41;96661.78;5042066;28;20057;-64
2023/07/21 04:10:47;;;;;;;0.73;0.73;;;;;;;21.03;76.04;96714.03;5042237;28;20444;-66
2023/07/21 04:13:13;;;;;;;0.90;0.90;;;;;;;21.17;75.25;96693.88;5042003;28;20065;-65
2023/07/21 04:15:40;;;;;;;0.90;0.90;;;;;;;21.22;74.40;96684.09;5041900;28;20064;-66
2023/07/21 04:18:07;;;;;;;0.90;0.90;;;;;;;21.64;73.69;96719.41;5042057;28;20582;-64
2023/07/21 04:20:34;;;;;;;0.93;0.93;;;;;;;21.65;72.65;96715.34;5043392;28;20060;-65
2023/07/21 04:23:02;;;;;;;1.00;1.00;;;;;;;21.85;72.25;96730.84;5042014;28;20141;-66
2023/07/21 04:25:29;;;;;;;0.80;0.80;;;;;;;21.87;72.35;96728.34;5043017;28;20206;-66
2023/07/21 04:27:55;;;;;;;0.82;0.82;;;;;;;21.75;71.70;96664.28;5041818;28;20504;-66
2023/07/21 04:30:22;;;;;;;1.00;1.00;;;;;;;22.19;71.38;96728.06;5043206;28;20041;-65
2023/07/21 04:32:50;;;;;;;0.90;0.90;;;;;;;22.13;70.76;96696.03;5043126;28;20045;-65
2023/07/21 04:35:17;;;;;;;0.80;0.80;;;;;;;22.61;70.09;96725.06;5041466;28;20104;-65
2023/07/21 04:37:44;;;;;;;0.95;0.95;;;;;;;22.18;69.02;96632.59;5042886;28;20438;-66
2023/07/21 04:40:11;;;;;;;0.95;0.95;;;;;;;22.84;68.88;96722.59;5043303;28;20069;-66
2023/07/21 04:42:39;;;;;;;0.98;0.98;;;;;;;22.68;68.99;96686.09;5042843;28;20049;-66
2023/07/21 04:45:11;;;;;;;1.00;1.00;;;;;;;23.04;68.79;96717.44;5041759;28;20056;-66
2023/07/21 04:47:41;;;;;;;0.90;0.90;;;;;;;22.99;68.26;96711.56;5042725;28;21140;-66
2023/07/21 04:50:09;;;;;;;1.00;1.00;;;;;;;22.87;68.20;96692.66;5039197;28;20118;-69
2023/07/21 04:52:39;;;;;;;1.00;1.00;;;;;;;23.44;67.22;96743.00;5034009;28;20179;-64
2023/07/21 04:55:06;;;;;;;0.90;0.90;;;;;;;22.59;68.23;96640.03;5041582;28;20443;-69
2023/07/21 04:57:33;;;;;;;0.98;0.98;;;;;;;22.77;68.67;96665.59;5039466;28;20049;-66
2023/07/21 05:00:00;;;;;;;1.05;1.05;;;;;;;23.18;69.66;96735.88;5041619;28;20152;-65
2023/07/21 05:02:30;;;;;;;1.00;1.00;;;;;;;23.39;68.76;96746.44;5041059;28;20053;-66
2023/07/21 05:04:57;;;;;;;1.08;1.08;;;;;;;23.04;67.71;96691.19;5025059;28;20494;-65
2023/07/21 05:07:25;;;;;;;1.00;1.00;;;;;;;23.58;67.23;96753.75;5026098;28;20516;-65
2023/07/21 05:09:55;;;;;;;1.00;1.00;;;;;;;23.32;66.54;96661.88;5024910;28;20049;-66
2023/07/21 05:12:26;;;;;;;1.10;1.10;;;;;;;23.90;65.34;96731.44;5026621;28;20053;-66
2023/07/21 05:14:52;;;;;;;1.08;1.08;;;;;;;24.08;65.32;96732.78;5024469;28;20045;-69
2023/07/21 05:17:19;;;;;;;1.20;1.20;;;;;;;23.89;66.04;96740.41;5026057;28;20504;-65
2023/07/21 05:19:46;;;;;;;1.10;1.10;;;;;;;24.03;65.89;96756.84;5026497;28;20136;-66
2023/07/21 05:22:13;;;;;;;1.30;1.30;;;;;;;24.00;64.44;96706.81;5024762;28;20133;-65
2023/07/21 05:24:42;;;;;;;1.10;1.10;;;;;;;24.24;64.23;96707.84;5025742;28;20076;-66
2023/07/21 05:27:10;;;;;;;1.20;1.20;;;;;;;24.20;62.79;96650.56;5026130;28;20456;-65
2023/07/21 05:29:37;;;;;;;1.20;1.20;;;;;;;24.90;61.91;96726.03;5025970;28;20053;-66
2023/07/21 05:32:05;;;;;;;1.38;1.38;;;;;;;25.15;61.49;96752.00;5026098;28;20057;-66
2023/07/21 05:34:33;;;;;;;1.20;1.20;;;;;;;25.22;60.62;96723.34;5024026;28;20049;-67
2023/07/21 05:37:01;;;;;;;1.30;1.30;;;;;;;25.37;60.40;96717.06;5026229;28;20053;-66
2023/07/21 05:39:29;;;;;;;1.20;1.20;;;;;;;25.74;60.65;96741.22;5025821;28;20515;-67
2023/07/21 05:41:57;;;;;;;1.20;1.20;;;;;;;25.88;60.23;96746.19;5024269;28;20721;-68
2023/07/21 05:44:26;;;;;;;1.27;1.27;;;;;;;25.83;60.18;96724.16;5038187;28;20687;-68
2023/07/21 05:46:53;;;;;;;1.30;1.30;;;;;;;26.18;60.07;96742.31;5044168;28;20057;-69
2023/07/21 05:49:21;;;;;;;1.35;1.35;;;;;;;26.32;59.42;96731.06;5044012;28;20595;-65
2023/07/21 05:51:49;;;;;;;1.40;1.40;;;;;;;26.55;58.81;96744.50;5043689;28;20528;-70
2023/07/21 05:54:16;;;;;;;1.63;1.63;;;;;;;25.70;58.20;96627.09;5036555;28;20130;-70
2023/07/21 05:56:42;;;;;;;1.40;1.40;;;;;;;26.95;57.29;96738.41;5039778;28;20041;-70
2023/07/21 05:59:09;;;;;;;1.65;1.65;;;;;;;26.97;56.96;96718.78;5042220;28;20130;-65
2023/07/21 06:01:37;;;;;;;1.58;1.58;;;;;;;27.18;56.85;96745.31;5036332;28;20451;-65
2023/07/21 06:04:05;;;;;;;1.60;1.60;;;;;;;27.24;57.17;96749.84;5042830;28;20492;-68
2023/07/21 06:06:32;;;;;;;1.27;1.27;;;;;;;27.26;56.33;96735.94;5033926;28;20128;-66
2023/07/21 06:08:59;;;;;;;1.50;1.50;;;;;;;27.34;56.17;96713.59;5040378;28;20511;-71
2023/07/21 06:11:26;;;;;;;1.38;1.38;;;;;;;27.19;55.42;96690.78;5041850;28;20534;-69
2023/07/21 06:13:54;;;;;;;1.40;1.40;;;;;;;27.20;54.64;96661.06;5031880;28;20053;-67
2023/07/21 06:16:22;;;;;;;1.70;1.70;;;;;;;27.74;55.15;96759.34;5024492;28;20501;-67
2023/07/21 06:18:53;;;;;;;1.50;1.50;;;;;;;27.50;53.74;96664.72;5024680;28;20053;-70
2023/07/21 06:21:23;;;;;;;1.60;1.60;;;;;;;27.28;54.02;96648.06;5024690;28;20053;-70
2023/07/21 06:23:51;;;;;;;1.33;1.33;;;;;;;28.34;53.98;96744.56;5024101;28;20057;-66
2023/07/21 06:26:18;;;;;;;1.65;1.65;;;;;;;28.07;53.81;96691.59;5034668;28;20056;-72
2023/07/21 06:28:45;;;;;;;1.55;1.55;;;;;;;28.36;52.79;96697.16;5044912;28;20106;-72
2023/07/21 06:31:12;;;;;;;1.60;1.60;;;;;;;28.56;52.22;96705.00;5044552;28;20049;-70
2023/07/21 06:33:39;;;;;;;1.58;1.58;;;;;;;28.22;52.25;96634.56;5043317;28;20463;-71
2023/07/21 06:36:06;;;;;;;1.55;1.55;;;;;;;28.63;51.29;96671.16;5041866;28;20067;-71
2023/07/21 06:38:33;;;;;;;1.75;1.75;;;;;;;29.18;50.41;96733.84;5044739;28;20049;-67
2023/07/21 06:41:04;;;;;;;1.70;1.70;;;;;;;29.48;50.69;96747.38;5040296;28;20072;-66
2023/07/21 06:43:33;;;;;;;1.98;1.98;;;;;;;29.30;48.11;96729.81;5038936;28;20089;-67
2023/07/21 06:46:02;;;;;;;1.90;1.90;;;;;;;28.54;48.78;96593.53;5040754;28;20452;-75
2023/07/21 06:48:31;;;;;;;1.85;1.85;;;;;;;29.21;47.95;96658.63;5043052;28;20443;-67
2023/07/21 06:50:57;;;;;;;1.70;1.70;;;;;;;30.04;47.35;96725.88;5041736;28;20056;-74
2023/07/21 06:53:24;;;;;;;1.80;1.80;;;;;;;29.74;47.50;96646.69;5041350;28;20134;-65
2023/07/21 06:55:51;;;;;;;1.85;1.85;;;;;;;29.21;46.40;96538.78;5043092;28;20059;-68
2023/07/21 06:58:18;;;;;;;1.80;1.80;;;;;;;30.58;46.45;96712.50;5043203;28;20141;-71
2023/07/21 07:00:46;;;;;;;1.75;1.75;;;;;;;30.62;46.52;96702.38;5054319;28;20052;-68
2023/07/21 07:03:13;;;;;;;2.05;2.05;;;;;;;30.78;46.08;96710.31;5051273;28;20053;-66
2023/07/21 07:05:44;;;;;;;1.88;1.88;;;;;;;30.68;45.18;96708.91;5035684;28;20843;-73
2023/07/21 07:08:12;;;;;;;2.47;2.40;;;;;;;30.62;45.39;96688.09;5040458;28;20052;-69
2023/07/21 07:10:39;;;;;;;1.63;1.63;;;;;;;30.07;45.59;96604.84;5043296;28;20494;-67
2023/07/21 07:13:06;;;;;;;1.65;1.65;;;;;;;30.51;44.58;96696.59;5043137;28;20056;-68
2023/07/21 07:15:32;;;;;;;1.90;1.90;;;;;;;30.23;44.73;96624.19;5038455;28;20785;-69
2023/07/21 07:17:59;;;;;;;1.80;1.80;;;;;;;30.71;44.20;96689.97;5034526;28;20060;-65
2023/07/21 07:20:28;;;;;;;1.90;1.90;;;;;;;30.19;44.99;96666.47;5041708;28;20099;-71
2023/07/21 07:22:55;;;;;;;1.83;1.83;;;;;;;29.07;45.87;96534.78;5042865;28;20314;-69
2023/07/21 07:25:24;;;;;;;1.75;1.75;;;;;;;30.37;45.84;96657.53;5041168;28;20057;-65
2023/07/21 07:27:52;;;;;;;1.95;1.95;;;;;;;31.17;45.17;96735.44;5040129;28;20084;-71
2023/07/21 07:30:20;;;;;;;1.92;1.92;;;;;;;31.47;44.68;96725.16;5037139;28;20045;-73
2023/07/21 07:32:48;;;;;;;1.70;1.70;;;;;;;31.71;44.01;96728.34;5041464;28;20041;-75
2023/07/21 07:35:16;;;;;;;1.90;1.90;;;;;;;31.24;43.38;96643.34;5042906;28;20063;-68
2023/07/21 07:37:43;;;;;;;1.98;1.98;;;;;;;31.15;43.97;96652.16;5044043;28;20781;-67
2023/07/21 07:40:10;;;;;;;1.65;1.65;;;;;;;31.84;42.79;96731.50;5043078;28;20059;-78
2023/07/21 07:42:39;;;;;;;2.00;2.00;;;;;;;31.70;42.79;96703.84;5039674;28;20145;-77
2023/07/21 07:45:06;;;;;;;1.70;1.70;;;;;;;32.01;42.62;96712.25;5038789;28;20122;-68
2023/07/21 07:47:34;;;;;;;1.98;1.98;;;;;;;32.07;41.48;96710.16;5041809;28;20076;-65
2023/07/21 07:50:02;;;;;;;1.90;1.90;;;;;;;32.03;40.32;96678.09;5040409;28;20064;-65
2023/07/21 07:52:29;;;;;;;2.00;2.00;;;;;;;32.39;40.01;96708.56;5051734;28;20065;-65
2023/07/21 07:54:56;;;;;;;1.88;1.88;;;;;;;32.13;41.23;96656.44;5034819;28;20056;-74
2023/07/21 07:57:26;;;;;;;1.88;1.88;;;;;;;32.06;39.24;96649.16;5042471;28;20045;-79
2023/07/21 07:59:53;;;;;;;1.92;1.92;;;;;;;32.70;38.74;96721.81;5040865;28;20148;-66
2023/07/21 08:02:21;;;;;;;1.90;1.90;;;;;;;32.77;40.25;96729.88;5043311;28;20135;-76
2023/07/21 08:04:47;;;;;;;1.60;1.60;;;;;;;32.87;40.13;96703.22;5038779;28;20045;-68
2023/07/21 08:07:14;;;;;;;1.98;1.98;;;;;;;33.03;39.10;96711.03;5043829;28;20087;-71
2023/07/21 08:09:41;;;;;;;1.63;1.63;;;;;;;33.39;38.73;96726.25;5040781;28;20170;-75
2023/07/21 08:12:08;;;;;;;1.95;1.95;;;;;;;33.12;39.38;96661.91;5041230;28;20565;-68
2023/07/21 08:14:34;;;;;;;1.90;1.90;;;;;;;33.20;39.39;96703.13;5042011;28;20730;-73
2023/07/21 08:17:02;;;;;;;1.90;1.90;;;;;;;33.48;38.68;96712.38;5043102;28;20542;-74
2023/07/21 08:19:32;;;;;;;1.98;1.98;;;;;;;31.98;40.01;96736.97;5035544;28;20099;-69
2023/07/21 08:22:07;;;;;;;1.98;1.98;;;;;;;32.11;40.63;96730.72;5042979;28;20147;-71
2023/07/21 08:24:33;;;;;;;1.70;1.70;;;;;;;31.68;39.72;96637.72;5041890;28;20583;-64
2023/07/21 08:27:02;;;;;;;1.90;1.90;;;;;;;32.61;40.22;96731.50;5042188;28;20045;-67
2023/07/21 08:29:29;;;;;;;1.88;1.88;;;;;;;32.79;38.57;96713.69;5042619;28;20041;-69
2023/07/21 08:31:56;;;;;;;1.98;1.98;;;;;;;33.08;37.97;96736.06;5043145;28;20077;-62
2023/07/21 08:34:23;;;;;;;2.20;2.20;;;;;;;33.07;37.26;96728.75;5042611;28;20053;-63
2023/07/21 08:36:49;;;;;;;2.20;2.20;;;;;;;33.40;37.55;96737.25;5041826;28;20052;-67
2023/07/21 08:39:21;;;;;;;2.08;2.08;;;;;;;33.24;36.40;96669.19;5043949;28;20054;-65
2023/07/21 08:41:50;;;;;;;1.70;1.70;;;;;;;33.34;36.87;96667.53;5043906;28;20575;-65
2023/07/21 08:44:19;;;;;;;1.98;1.98;;;;;;;33.34;36.11;96696.25;5045538;28;20515;-68
2023/07/21 08:46:46;;;;;;;2.00;2.00;;;;;;;32.30;36.82;96683.00;5045392;28;20073;-75
2023/07/21 08:49:17;;;;;;;2.08;2.08;;;;;;;32.65;37.23;96673.81;5044179;28;20073;-72
2023/07/21 08:51:43;;;;;;;1.75;1.75;;;;;;;33.46;35.82;96717.91;5045341;28;20339;-67
2023/07/21 08:54:10;;;;;;;1.70;1.70;;;;;;;33.63;35.38;96701.34;5044570;28;20057;-63
2023/07/21 08:56:37;;;;;;;1.88;1.88;;;;;;;33.86;36.03;96707.69;5047005;28;20520;-62
2023/07/21 08:59:03;;;;;;;1.77;1.77;;;;;;;34.05;35.21;96690.59;5046164;28;20435;-70
2023/07/21 09:01:30;;;;;;;1.95;1.95;;;;;;;34.28;35.12;96686.19;5032751;28;20053;-73
2023/07/21 09:03:57;;;;;;;2.17;2.17;;;;;;;34.57;35.48;96737.22;5034740;28;20132;-75
2023/07/21 09:06:24;;;;;;;1.83;1.83;;;;;;;34.59;35.10;96746.06;5039440;28;20045;-73
2023/07/21 09:08:53;;;;;;;2.05;2.05;;;;;;;34.65;34.69;96738.94;5034565;28;20498;-62
2023/07/21 09:11:24;;;;;;;2.03;2.03;;;;;;;34.22;35.03;96659.59;5028483;28;20077;-66
2023/07/21 09:13:56;;;;;;;2.22;2.22;;;;;;;34.59;35.23;96740.31;5043607;28;20505;-74
2023/07/21 09:16:23;;;;;;;1.98;1.98;;;;;;;34.50;35.47;96697.53;5024575;28;20458;-72
2023/07/21 09:18:52;;;;;;;1.80;1.80;;;;;;;34.67;35.31;96735.53;5064707;28;20131;-76
2023/07/21 09:21:23;;;;;;;1.92;1.92;;;;;;;34.78;35.53;96749.81;5063735;28;20105;-70
2023/07/21 09:23:51;;;;;;;1.98;1.98;;;;;;;34.98;35.68;96724.22;5065943;28;20056;-67
2023/07/21 09:26:21;;;;;;;1.83;1.83;;;;;;;34.98;36.04;96746.50;5054370;28;20052;-65
2023/07/21 09:28:49;;;;;;;2.17;2.17;;;;;;;34.66;36.41;96705.19;5046144;28;20053;-70
2023/07/21 09:31:16;;;;;;;1.90;1.90;;;;;;;35.20;35.97;96722.41;5064389;28;20052;-69
2023/07/21 09:33:45;;;;;;;2.00;2.00;;;;;;;35.35;35.70;96743.66;5060997;28;20049;-65
2023/07/21 09:36:15;;;;;;;2.22;2.22;;;;;;;34.88;36.07;96659.69;5056458;28;20052;-67
2023/07/21 09:38:43;;;;;;;1.77;1.77;;;;;;;35.40;35.92;96727.66;5064824;28;20345;-74
2023/07/21 09:41:15;;;;;;;2.25;2.25;;;;;;;34.88;36.52;96670.44;5064624;28;20135;-73
2023/07/21 09:43:43;;;;;;;1.87;1.87;;;;;;;35.21;36.14;96736.25;5063669;28;20551;-75
2023/07/21 09:46:10;;;;;;;2.25;2.25;;;;;;;35.30;35.91;96694.78;5065246;28;20050;-65
2023/07/21 09:48:44;;;;;;;2.17;2.17;;;;;;;35.60;36.01;96759.59;5064389;28;20051;-72
2023/07/21 09:51:11;;;;;;;1.98;1.98;;;;;;;33.62;35.20;96349.19;5063724;28;20052;-64
2023/07/21 09:53:40;;;;;;;1.95;1.95;;;;;;;35.63;34.53;96642.44;5064149;28;20044;-63
2023/07/21 09:56:08;;;;;;;1.70;1.70;;;;;;;35.59;34.47;96685.22;5065213;28;20055;-79
2023/07/21 09:58:45;;;;;;;2.05;2.05;;;;;;;34.95;34.78;96592.09;5063715;28;20048;-76
2023/07/21 10:01:12;;;;;;;1.85;1.85;;;;;;;35.98;34.69;96706.38;5030524;28;20052;-71
2023/07/21 10:03:41;;;;;;;2.20;2.20;;;;;;;35.19;34.34;96632.31;5064740;28;20048;-79
2023/07/21 10:06:09;;;;;;;2.03;2.03;;;;;;;35.22;35.15;96719.75;5064895;28;20044;-73
2023/07/21 10:08:37;;;;;;;5.78;5.57;;;;;;;35.47;34.74;96716.31;5058639;28;20059;-65
2023/07/21 10:11:09;;;;;;;5.82;5.63;;;;;;;35.39;34.34;96721.13;5050626;28;20499;-70
2023/07/21 10:13:44;;;;;;;5.72;5.53;;;;;;;34.86;35.06;96736.38;5046157;28;20060;-68
2023/07/21 10:16:11;;;;;;;5.30;5.20;;;;;;;35.26;34.56;96715.25;5063044;28;20052;-72
2023/07/21 10:19:00;;;;;;;5.20;5.10;;;;;;;36.00;33.60;96723.91;5065450;28;20135;-76
2023/07/21 10:21:56;;;;;;;5.57;5.43;;;;;;;36.45;33.02;96692.25;5064281;28;20073;-74
2023/07/21 10:24:27;;;;;;;5.82;5.63;;;;;;;36.57;32.75;96710.13;5059398;28;20051;-67
2023/07/21 10:27:02;;;;;;;5.35;5.25;;;;;;;36.90;32.28;96700.84;5046124;28;20423;-72
2023/07/21 10:29:29;;;;;;;5.43;5.32;;;;;;;36.31;32.44;96707.97;5055856;28;20057;-72
2023/07/21 10:31:58;;;;;;;5.55;5.40;;;;;;;36.40;32.47;96688.13;5064467;28;20051;-73
2023/07/21 10:34:26;;;;;;;5.20;5.10;;;;;;;37.15;31.42;96705.09;5064685;28;20048;-70
2023/07/21 10:36:53;;;;;;;5.55;5.38;;;;;;;36.87;31.97;96691.19;5064482;28;20725;-71
2023/07/21 10:39:23;;;;;;;6.00;5.80;;;;;;;37.30;32.37;96693.75;5064820;28;20139;-69
2023/07/21 10:41:52;;;;;;;5.00;4.90;;;;;;;37.69;31.35;96690.78;5064365;28;20139;-72
2023/07/21 10:44:20;;;;;;;5.82;5.63;;;;;;;37.92;31.19;96698.38;5063116;28;20083;-73
2023/07/21 10:46:49;;;;;;;5.57;5.38;;;;;;;37.79;31.37;96712.91;5062312;28;20525;-72
2023/07/21 10:49:18;;;;;;;5.22;5.13;;;;;;;37.65;31.74;96701.91;5064048;28;20087;-73
2023/07/21 10:51:47;;;;;;;5.00;4.90;;;;;;;37.25;30.38;96600.06;5064600;28;20052;-69
2023/07/21 10:54:15;;;;;;;6.07;5.88;;;;;;;37.81;30.92;96692.09;5064315;28;20052;-73
2023/07/21 10:56:46;;;;;;;5.75;5.55;;;;;;;37.76;31.04;96696.66;5064071;28;20052;-69
2023/07/21 10:59:16;;;;;;;5.75;5.55;;;;;;;37.66;31.57;96703.44;5062480;28;20044;-70
2023/07/21 11:02:03;;;;;;;5.38;5.28;;;;;;;37.97;31.85;96699.59;5064250;28;20151;-67
2023/07/21 11:04:33;;;;;;;5.72;5.53;;;;;;;37.93;31.60;96696.25;5063932;28;20105;-73
2023/07/21 11:07:00;;;;;;;5.90;5.70;;;;;;;38.06;31.36;96678.84;5044750;28;20118;-74
2023/07/21 11:09:30;;;;;;;5.93;5.72;;;;;;;37.71;31.18;96621.59;5044163;28;20045;-68
2023/07/21 11:11:57;;;;;;;5.85;5.65;;;;;;;37.90;31.80;96682.91;5046676;28;20147;-70
2023/07/21 11:14:26;;;;;;;5.70;5.53;;;;;;;37.87;31.58;96686.94;5055681;28;20048;-72
2023/07/21 11:16:55;;;;;;;5.88;5.68;;;;;;;37.81;31.72;96658.13;5044273;28;20055;-72
2023/07/21 11:19:25;;;;;;;5.80;5.60;;;;;;;37.39;32.17;96644.91;5042706;28;20114;-69
2023/07/21 11:21:52;;;;;;;5.10;5.00;;;;;;;37.23;32.62;96688.66;5042408;28;20064;-68
2023/07/21 11:24:25;;;;;;;5.45;5.32;;;;;;;35.54;33.02;96502.38;5043762;28;20503;-68
2023/07/21 11:27:10;;;;;;;4.90;4.80;;;;;;;36.48;34.00;96677.47;5042524;28;20057;-71
2023/07/21 11:29:40;;;;;;;5.72;5.53;;;;;;;36.52;33.50;96676.38;5042595;28;20060;-71
2023/07/21 11:32:20;;;;;;;5.68;5.47;;;;;;;35.98;34.74;96651.56;5043204;28;20075;-68
2023/07/21 11:34:57;;;;;;;4.70;4.60;;;;;;;35.91;34.63;96675.31;5043474;28;20082;-71
2023/07/21 11:37:25;;;;;;;5.10;5.00;;;;;;;35.73;35.70;96660.88;5043309;28;20052;-72
2023/07/21 11:39:55;;;;;;;5.35;5.25;;;;;;;35.31;35.44;96633.72;5044530;28;20061;-71